Fryeburg, Maine
Current Conditions -  °F | °C
As of 3:54 PM on Tuesday 25 Nov 2014 (Local Time) from KIZG Reporting Station
Clear Clear  
Wind Chill: 51°   Ceiling: Unl
Heat Index: 51°   Visibility: 10mi
Dew Point: 23°   Wind: 12mph
Humidity: 33%   Direction: 230°SW
Pressure: 29.84"   Gusts: 20mph
Location:  44.02°N, 70.98°W
Report Text: KIZG 252054Z AUTO 23010G17KT 10SM CLR 11/M05 A2984 RMK AO2 SLP107 T01061050 53013
Loading
Personal Weather Stations






























Interactive Weather Map New forecast layout! Learn more

10-Day Weather Forecast

Advertisements
Track Severe Weather on mobile